createdAt,value
2024-02-14T00:00:38.393Z,72.45
2024-02-14T00:03:30.272Z,72.56
2024-02-14T00:06:02.268Z,72.22
2024-02-14T00:08:34.228Z,72.36
2024-02-14T00:11:06.308Z,72.50
2024-02-14T00:13:36.659Z,72.43
2024-02-14T00:16:10.808Z,72.43
2024-02-14T00:18:42.831Z,72.35
2024-02-14T00:21:14.986Z,72.40
2024-02-14T00:23:45.828Z,72.24
2024-02-14T00:26:16.650Z,72.38
2024-02-14T00:28:46.994Z,72.49
2024-02-14T00:31:18.923Z,72.45
2024-02-14T00:33:49.431Z,72.46
2024-02-14T00:36:21.616Z,72.27
2024-02-14T00:38:52.716Z,72.20
2024-02-14T00:41:24.959Z,71.90
2024-02-14T00:43:55.299Z,71.95
2024-02-14T00:46:27.299Z,71.90
2024-02-14T00:49:00.894Z,72.17
2024-02-14T00:51:33.009Z,72.18
2024-02-14T00:54:05.056Z,72.24
2024-02-14T00:56:37.320Z,72.13
2024-02-14T00:59:09.822Z,72.04
2024-02-14T01:01:42.350Z,71.99
2024-02-14T01:04:14.341Z,72.14
2024-02-14T01:06:46.391Z,72.16
2024-02-14T01:09:18.507Z,72.16
2024-02-14T01:11:50.576Z,72.20
2024-02-14T01:14:23.655Z,72.40
2024-02-14T01:16:56.059Z,72.28
2024-02-14T01:19:29.876Z,71.84
2024-02-14T01:22:01.848Z,71.81
2024-02-14T01:24:33.642Z,71.88
2024-02-14T01:27:06.840Z,71.68
2024-02-14T01:29:38.800Z,71.68
2024-02-14T01:32:10.909Z,71.54
2024-02-14T01:34:43.783Z,71.73
2024-02-14T01:37:15.730Z,71.51
2024-02-14T01:39:45.978Z,71.60
2024-02-14T01:42:17.895Z,71.42
2024-02-14T01:44:48.181Z,71.54
2024-02-14T01:47:21.109Z,71.65
2024-02-14T01:49:53.144Z,71.38
2024-02-14T01:52:25.086Z,71.67
2024-02-14T01:54:57.328Z,71.41
2024-02-14T01:57:30.011Z,71.27
2024-02-14T02:00:05.902Z,70.99
2024-02-14T02:02:39.170Z,71.21
2024-02-14T02:05:11.648Z,71.03
2024-02-14T02:07:44.972Z,71.27
2024-02-14T02:10:17.623Z,70.91
2024-02-14T02:12:49.944Z,71.15
2024-02-14T02:15:21.870Z,71.02
2024-02-14T02:17:54.738Z,71.30
2024-02-14T02:20:29.498Z,71.23
2024-02-14T02:23:01.836Z,71.39
2024-02-14T02:25:33.695Z,71.51
2024-02-14T02:28:06.106Z,71.61
2024-02-14T02:30:38.579Z,71.70
2024-02-14T02:33:11.029Z,71.83
2024-02-14T02:35:46.468Z,71.68
2024-02-14T02:38:18.839Z,71.93
2024-02-14T02:40:50.836Z,71.98
2024-02-14T02:43:23.185Z,72.05
2024-02-14T02:45:55.269Z,71.94
2024-02-14T02:48:27.332Z,71.98
2024-02-14T02:51:00.303Z,71.85
2024-02-14T02:53:32.481Z,72.53
2024-02-14T02:56:04.918Z,72.14
2024-02-14T02:58:37.399Z,72.51
2024-02-14T03:01:13.228Z,72.42
2024-02-14T03:03:45.481Z,72.88
2024-02-14T03:06:17.553Z,72.78
2024-02-14T03:08:50.335Z,73.10
2024-02-14T03:11:22.329Z,72.55
2024-02-14T03:13:54.389Z,72.73
2024-02-14T03:16:26.064Z,72.82
2024-02-14T03:19:00.130Z,73.12
2024-02-14T03:21:33.614Z,73.04
2024-02-14T03:24:06.442Z,73.27
2024-02-14T03:26:39.510Z,73.18
2024-02-14T03:29:11.548Z,73.28
2024-02-14T03:31:45.361Z,73.25
2024-02-14T03:34:17.412Z,73.44
2024-02-14T03:36:49.396Z,73.05
2024-02-14T03:39:21.472Z,73.04
2024-02-14T03:41:54.323Z,73.35
2024-02-14T03:44:26.252Z,73.31
2024-02-14T03:46:58.167Z,73.27
2024-02-14T03:49:28.496Z,72.80
2024-02-14T03:52:02.321Z,73.12
2024-02-14T03:54:34.210Z,73.28
2024-02-14T03:57:08.163Z,72.95
2024-02-14T03:59:43.313Z,73.21
2024-02-14T04:02:15.692Z,73.14
2024-02-14T04:04:47.896Z,73.00
2024-02-14T04:07:19.801Z,73.37
2024-02-14T04:09:51.839Z,72.92
2024-02-14T04:12:22.132Z,72.99
2024-02-14T04:14:54.059Z,73.35
2024-02-14T04:17:25.335Z,73.17
2024-02-14T04:19:57.307Z,73.25
2024-02-14T04:22:29.170Z,73.45
2024-02-14T04:25:01.104Z,73.45
2024-02-14T04:27:31.442Z,73.48
2024-02-14T04:30:05.005Z,73.34
2024-02-14T04:32:37.114Z,73.98
2024-02-14T04:35:10.028Z,73.86
2024-02-14T04:37:44.526Z,73.96
2024-02-14T04:40:17.507Z,74.14
2024-02-14T04:42:50.365Z,73.93
2024-02-14T04:45:22.333Z,73.89
2024-02-14T04:47:54.420Z,73.72
2024-02-14T04:50:25.120Z,73.69
2024-02-14T04:52:56.956Z,73.89
2024-02-14T04:55:30.491Z,73.59
2024-02-14T04:58:02.868Z,74.43
2024-02-14T05:00:35.358Z,73.92
2024-02-14T05:03:07.640Z,73.81
2024-02-14T05:05:40.287Z,74.04
2024-02-14T05:08:12.403Z,73.71
2024-02-14T05:10:44.342Z,74.18
2024-02-14T05:13:17.052Z,74.46
2024-02-14T05:15:48.983Z,74.10
2024-02-14T05:18:21.096Z,74.10
2024-02-14T05:20:53.324Z,74.47
2024-02-14T05:23:25.325Z,74.35
2024-02-14T05:25:57.256Z,74.31
2024-02-14T05:28:29.713Z,74.23
2024-02-14T05:31:04.459Z,74.21
2024-02-14T05:33:37.148Z,74.51
2024-02-14T05:36:10.373Z,74.59
2024-02-14T05:38:42.383Z,74.66
2024-02-14T05:41:14.289Z,74.74
2024-02-14T05:43:46.123Z,74.97
2024-02-14T05:46:18.032Z,74.91
2024-02-14T05:48:50.293Z,74.93
2024-02-14T05:51:22.461Z,75.15
2024-02-14T05:53:54.507Z,74.93
2024-02-14T05:56:24.951Z,74.93
2024-02-14T05:58:56.806Z,75.02
2024-02-14T06:01:30.131Z,75.02
2024-02-14T06:04:02.337Z,75.12
2024-02-14T06:06:34.717Z,75.45
2024-02-14T06:09:10.992Z,75.32
2024-02-14T06:11:43.826Z,75.51
2024-02-14T06:14:15.704Z,75.57
2024-02-14T06:16:47.632Z,75.66
2024-02-14T06:19:19.607Z,75.71
2024-02-14T06:21:50.090Z,75.45
2024-02-14T06:24:22.204Z,75.57
2024-02-14T06:26:54.146Z,75.78
2024-02-14T06:29:26.049Z,75.91
2024-02-14T06:31:58.192Z,75.69
2024-02-14T06:34:30.331Z,76.04
2024-02-14T06:37:02.533Z,75.77
2024-02-14T06:39:34.409Z,75.87
2024-02-14T06:42:07.136Z,75.97
2024-02-14T06:44:39.066Z,75.71
2024-02-14T06:47:11.124Z,75.57
2024-02-14T06:49:41.481Z,75.65
2024-02-14T06:52:13.633Z,75.44
2024-02-14T06:54:43.900Z,75.64
2024-02-14T06:57:15.790Z,75.81
2024-02-14T06:59:47.665Z,75.75
2024-02-14T07:02:19.650Z,75.95
2024-02-14T07:04:52.928Z,75.99
2024-02-14T07:07:25.189Z,75.75
2024-02-14T07:09:57.026Z,75.59
2024-02-14T07:12:31.633Z,75.37
2024-02-14T07:15:05.650Z,75.55
2024-02-14T07:17:37.808Z,75.23
2024-02-14T07:20:11.535Z,75.49
2024-02-14T07:22:43.607Z,75.06
2024-02-14T07:25:15.988Z,75.10
2024-02-14T07:27:50.877Z,74.81
2024-02-14T07:30:22.848Z,74.70
2024-02-14T07:32:55.572Z,74.90
2024-02-14T07:35:27.608Z,74.65
2024-02-14T07:37:59.794Z,74.44
2024-02-14T07:40:32.314Z,74.44
2024-02-14T07:43:04.591Z,74.31
2024-02-14T07:45:36.607Z,74.56
2024-02-14T07:48:09.882Z,74.52
2024-02-14T07:50:41.987Z,74.38
2024-02-14T07:53:13.154Z,74.42
2024-02-14T07:55:44.994Z,74.36
2024-02-14T07:58:16.860Z,73.91
2024-02-14T08:00:48.756Z,73.66
2024-02-14T08:03:19.111Z,73.30
2024-02-14T08:05:51.045Z,73.38
2024-02-14T08:08:26.389Z,73.26
2024-02-14T08:10:58.246Z,73.00
2024-02-14T08:13:30.244Z,72.64
2024-02-14T08:16:02.509Z,72.97
2024-02-14T08:18:32.965Z,72.55
2024-02-14T08:21:05.722Z,72.51
2024-02-14T08:23:40.120Z,72.41
2024-02-14T08:26:12.632Z,72.01
2024-02-14T08:28:44.530Z,71.97
2024-02-14T08:31:15.247Z,71.67
2024-02-14T08:33:47.593Z,71.41
2024-02-14T08:36:20.976Z,71.18
2024-02-14T08:38:53.360Z,70.97
2024-02-14T08:41:24.580Z,70.89
2024-02-14T08:43:56.518Z,70.63
2024-02-14T08:46:26.862Z,70.43
2024-02-14T08:48:58.976Z,70.01
2024-02-14T08:51:31.154Z,69.74
2024-02-14T08:54:01.638Z,69.49
2024-02-14T08:56:34.854Z,69.31
2024-02-14T08:59:08.213Z,69.05
2024-02-14T09:01:40.090Z,68.69
2024-02-14T09:04:10.542Z,68.35
2024-02-14T09:06:42.464Z,68.19
2024-02-14T09:09:16.971Z,67.75
2024-02-14T09:11:48.938Z,67.32
2024-02-14T09:14:19.271Z,66.47
2024-02-14T09:16:51.161Z,66.11
2024-02-14T09:19:22.909Z,65.38
2024-02-14T09:21:55.300Z,65.12
2024-02-14T09:24:27.248Z,64.60
2024-02-14T09:26:59.219Z,64.10
2024-02-14T09:29:31.629Z,63.72
2024-02-14T09:32:04.778Z,62.23
2024-02-14T09:34:37.525Z,59.80
2024-02-14T09:37:10.544Z,56.39
2024-02-14T09:39:44.530Z,53.75
2024-02-14T09:42:19.301Z,51.83
2024-02-14T09:44:55.287Z,49.58
2024-02-14T09:47:28.444Z,47.65
2024-02-14T09:50:01.873Z,48.04
2024-02-14T09:52:35.848Z,47.85
2024-02-14T09:55:11.927Z,46.81
2024-02-14T09:57:46.029Z,44.58
2024-02-14T10:00:19.388Z,45.18
2024-02-14T10:02:51.917Z,46.50
2024-02-14T10:05:24.092Z,46.90
2024-02-14T10:07:58.661Z,46.80
2024-02-14T10:10:31.269Z,45.94
2024-02-14T10:13:05.832Z,45.75
2024-02-14T10:15:37.854Z,45.52
2024-02-14T10:18:11.384Z,45.10
2024-02-14T10:20:46.336Z,44.05
2024-02-14T10:23:18.205Z,44.74
2024-02-14T10:25:51.489Z,45.42
2024-02-14T10:28:30.143Z,44.73
2024-02-14T10:31:12.324Z,44.53
2024-02-14T10:33:45.579Z,44.12
2024-02-14T10:36:20.232Z,42.45
2024-02-14T10:38:54.989Z,40.15
2024-02-14T10:41:32.942Z,39.19
2024-02-14T10:44:06.542Z,36.54
2024-02-14T10:46:42.445Z,33.85
2024-02-14T10:49:17.601Z,32.28
2024-02-14T10:51:54.784Z,31.02
2024-02-14T10:54:28.329Z,30.91
2024-02-14T10:57:06.111Z,28.87
2024-02-14T10:59:41.764Z,28.80
2024-02-14T11:02:14.876Z,27.24
2024-02-14T11:04:48.044Z,25.77
2024-02-14T11:07:24.206Z,25.62
2024-02-14T11:10:09.063Z,25.07
2024-02-14T11:12:42.868Z,24.32
2024-02-14T11:15:18.865Z,24.08
2024-02-14T11:17:53.594Z,23.13
2024-02-14T11:20:37.030Z,24.04
2024-02-14T11:23:12.886Z,23.89
2024-02-14T11:25:48.817Z,23.43
2024-02-14T11:28:22.070Z,24.11
2024-02-14T11:30:56.201Z,24.45
2024-02-14T11:33:28.344Z,23.70
2024-02-14T11:36:00.651Z,23.68
2024-02-14T11:38:32.923Z,23.13
2024-02-14T11:41:06.951Z,23.05
2024-02-14T11:43:40.994Z,22.47
2024-02-14T11:46:13.470Z,21.85
2024-02-14T11:48:48.605Z,22.01
2024-02-14T11:51:21.825Z,22.05
2024-02-14T11:53:53.995Z,20.57
2024-02-14T11:56:27.325Z,19.33
2024-02-14T11:58:59.980Z,20.00
2024-02-14T12:01:33.063Z,19.93
2024-02-14T12:04:08.322Z,19.95
2024-02-14T12:06:43.064Z,20.35
2024-02-14T12:09:15.602Z,19.76
2024-02-14T12:11:48.758Z,20.12
2024-02-14T12:14:26.183Z,19.94
2024-02-14T12:17:04.176Z,21.48
2024-02-14T12:19:39.546Z,21.73
2024-02-14T12:22:19.383Z,21.86
2024-02-14T12:24:53.716Z,21.87
2024-02-14T12:27:25.607Z,22.00
2024-02-14T12:29:57.572Z,21.97
2024-02-14T12:32:29.548Z,21.26
2024-02-14T12:35:02.306Z,21.95
2024-02-14T12:37:34.291Z,22.27
2024-02-14T12:40:08.139Z,22.77
2024-02-14T12:42:40.067Z,23.35
2024-02-14T12:45:14.658Z,24.23
2024-02-14T12:47:48.098Z,24.79
2024-02-14T12:50:21.830Z,25.15
2024-02-14T12:52:53.726Z,25.12
2024-02-14T12:55:26.768Z,25.01
2024-02-14T12:57:59.395Z,24.86
2024-02-14T13:00:33.038Z,26.21
2024-02-14T13:03:05.855Z,26.75
2024-02-14T13:05:38.970Z,26.84
2024-02-14T13:08:12.580Z,27.60
2024-02-14T13:10:44.761Z,28.16
2024-02-14T13:13:17.059Z,28.47
2024-02-14T13:15:49.017Z,28.93
2024-02-14T13:18:21.451Z,29.64
2024-02-14T13:20:58.891Z,30.52
2024-02-14T13:23:31.085Z,31.20
2024-02-14T13:26:05.315Z,31.28
2024-02-14T13:28:37.715Z,31.74
2024-02-14T13:31:10.521Z,32.23
2024-02-14T13:33:42.567Z,32.59
2024-02-14T13:36:18.340Z,32.84
2024-02-14T13:38:50.582Z,33.34
2024-02-14T13:41:23.042Z,33.72
2024-02-14T13:43:54.930Z,33.85
2024-02-14T13:46:27.916Z,34.01
2024-02-14T13:48:59.843Z,34.33
2024-02-14T13:51:31.988Z,34.57
2024-02-14T13:54:03.870Z,34.71
2024-02-14T13:56:35.843Z,34.67
2024-02-14T13:59:07.760Z,34.51
2024-02-14T14:01:40.309Z,34.67
2024-02-14T14:04:12.965Z,34.68
2024-02-14T14:06:45.067Z,34.71
2024-02-14T14:09:17.215Z,34.59
2024-02-14T14:11:51.420Z,35.07
2024-02-14T14:14:23.308Z,35.46
2024-02-14T14:16:55.318Z,35.68
2024-02-14T14:19:27.596Z,35.99
2024-02-14T14:22:00.106Z,36.44
2024-02-14T14:24:32.985Z,37.21
2024-02-14T14:27:05.111Z,37.62
2024-02-14T14:29:37.015Z,37.85
2024-02-14T14:32:10.521Z,37.85
2024-02-14T14:34:42.502Z,37.81
2024-02-14T14:37:14.475Z,37.92
2024-02-14T14:39:46.338Z,38.56
2024-02-14T14:42:19.531Z,38.60
2024-02-14T14:44:52.613Z,39.05
2024-02-14T14:47:24.568Z,39.67
2024-02-14T14:49:56.541Z,40.05
2024-02-14T14:52:28.610Z,40.16
2024-02-14T14:55:01.031Z,40.76
2024-02-14T14:57:33.101Z,40.90
2024-02-14T15:00:05.995Z,41.28
2024-02-14T15:02:38.230Z,41.47
2024-02-14T15:05:11.936Z,41.88
2024-02-14T15:07:44.169Z,42.13
2024-02-14T15:10:16.184Z,42.28
2024-02-14T15:12:48.082Z,42.19
2024-02-14T15:15:21.161Z,42.54
2024-02-14T15:17:53.368Z,42.78
2024-02-14T15:20:25.311Z,42.91
2024-02-14T15:22:57.262Z,42.84
2024-02-14T15:25:29.644Z,43.15
2024-02-14T15:28:01.610Z,43.26
2024-02-14T15:30:51.542Z,43.71
2024-02-14T15:33:24.761Z,44.19
2024-02-14T15:35:58.989Z,44.68
2024-02-14T15:38:31.229Z,44.92
2024-02-14T15:41:04.531Z,45.23
2024-02-14T15:43:36.902Z,45.32
2024-02-14T15:46:08.996Z,45.69
2024-02-14T15:48:42.527Z,45.85
2024-02-14T15:51:18.937Z,46.25
2024-02-14T15:53:50.996Z,46.59
2024-02-14T15:56:22.895Z,46.64
2024-02-14T15:58:54.819Z,47.02
2024-02-14T16:01:26.682Z,46.81
2024-02-14T16:03:58.672Z,47.29
2024-02-14T16:06:30.680Z,47.31
2024-02-14T16:09:02.821Z,47.73
2024-02-14T16:11:35.355Z,47.64
2024-02-14T16:14:07.317Z,47.70
2024-02-14T16:16:39.244Z,47.91
2024-02-14T16:19:11.776Z,47.90
2024-02-14T16:21:43.750Z,48.08
2024-02-14T16:24:16.656Z,48.10
2024-02-14T16:26:48.613Z,48.38
2024-02-14T16:29:20.523Z,48.53
2024-02-14T16:31:52.423Z,48.52
2024-02-14T16:34:24.399Z,48.87
2024-02-14T16:36:56.952Z,49.04
2024-02-14T16:39:39.828Z,48.69
2024-02-14T16:42:16.387Z,48.68
2024-02-14T16:44:49.196Z,48.91
2024-02-14T16:47:21.232Z,49.12
2024-02-14T16:49:53.280Z,49.28
2024-02-14T16:52:25.262Z,49.28
2024-02-14T16:54:57.248Z,49.08
2024-02-14T16:57:29.271Z,49.21
2024-02-14T17:00:01.476Z,49.39
2024-02-14T17:02:33.580Z,49.37
2024-02-14T17:05:05.852Z,49.55
2024-02-14T17:07:37.936Z,49.53
2024-02-14T17:10:11.749Z,49.84
2024-02-14T17:12:43.681Z,49.49
2024-02-14T17:15:16.016Z,49.55
2024-02-14T17:17:48.033Z,50.08
2024-02-14T17:20:20.893Z,49.92
2024-02-14T17:22:53.045Z,50.01
2024-02-14T17:25:25.683Z,50.20
2024-02-14T17:27:58.028Z,50.22
2024-02-14T17:30:30.033Z,50.51
2024-02-14T17:33:03.411Z,50.71
2024-02-14T17:35:35.555Z,50.53
2024-02-14T17:38:07.895Z,50.44
2024-02-14T17:40:39.813Z,50.65
2024-02-14T17:43:11.716Z,50.80
2024-02-14T17:45:43.926Z,50.84
2024-02-14T17:48:15.932Z,50.84
2024-02-14T17:50:50.333Z,50.76
2024-02-14T17:53:22.262Z,51.29
2024-02-14T17:55:54.432Z,51.28
2024-02-14T17:58:26.937Z,51.15
2024-02-14T18:00:59.678Z,51.09
2024-02-14T18:03:31.623Z,51.32
2024-02-14T18:06:04.403Z,51.30
2024-02-14T18:08:36.899Z,51.41
2024-02-14T18:11:09.088Z,51.63
2024-02-14T18:13:41.102Z,51.41
2024-02-14T18:16:13.021Z,51.50
2024-02-14T18:18:47.046Z,51.84
2024-02-14T18:21:20.856Z,51.66
2024-02-14T18:23:52.720Z,51.70
2024-02-14T18:26:25.144Z,52.03
2024-02-14T18:28:56.972Z,52.01
2024-02-14T18:31:29.498Z,52.21
2024-02-14T18:34:01.591Z,52.09
2024-02-14T18:36:33.619Z,52.66
2024-02-14T18:39:07.434Z,52.32
2024-02-14T18:41:40.739Z,52.76
2024-02-14T18:44:12.581Z,52.50
2024-02-14T18:46:48.168Z,52.49
2024-02-14T18:49:20.329Z,53.23
2024-02-14T18:51:52.553Z,53.08
2024-02-14T18:54:26.028Z,53.03
2024-02-14T18:56:57.982Z,52.87
2024-02-14T18:59:29.836Z,52.81
2024-02-14T19:02:01.730Z,53.04
2024-02-14T19:04:34.451Z,53.16
2024-02-14T19:07:06.768Z,53.40
2024-02-14T19:09:38.611Z,53.60
2024-02-14T19:12:11.092Z,53.17
2024-02-14T19:14:44.537Z,53.48
2024-02-14T19:17:16.538Z,53.48
2024-02-14T19:19:48.497Z,53.63
2024-02-14T19:22:20.526Z,53.59
2024-02-14T19:24:52.455Z,53.94
2024-02-14T19:27:24.429Z,53.58
2024-02-14T19:29:56.302Z,54.13
2024-02-14T19:32:28.438Z,53.90
2024-02-14T19:35:01.269Z,54.06
2024-02-14T19:37:33.367Z,54.01
2024-02-14T19:40:07.752Z,54.16
2024-02-14T19:42:40.038Z,54.35
2024-02-14T19:45:13.519Z,54.28
2024-02-14T19:47:47.331Z,54.50
2024-02-14T19:50:20.920Z,54.35
2024-02-14T19:52:53.323Z,54.22
2024-02-14T19:55:25.455Z,54.31
2024-02-14T19:57:57.298Z,54.56
2024-02-14T20:00:33.128Z,54.65
2024-02-14T20:03:05.332Z,54.93
2024-02-14T20:05:39.304Z,54.74
2024-02-14T20:08:12.951Z,55.32
2024-02-14T20:10:44.947Z,55.02
2024-02-14T20:13:16.949Z,55.26
2024-02-14T20:15:49.604Z,55.42
2024-02-14T20:18:21.679Z,55.60
2024-02-14T20:20:53.708Z,55.22
2024-02-14T20:23:27.365Z,55.54
2024-02-14T20:25:59.481Z,55.56
2024-02-14T20:28:31.348Z,55.44
2024-02-14T20:31:03.295Z,55.43
2024-02-14T20:33:35.353Z,55.75
2024-02-14T20:36:09.647Z,55.92
2024-02-14T20:38:41.707Z,55.77
2024-02-14T20:41:16.948Z,56.11
2024-02-14T20:43:48.891Z,56.06
2024-02-14T20:46:21.422Z,56.01
2024-02-14T20:48:54.827Z,56.10
2024-02-14T20:51:29.369Z,56.22
2024-02-14T20:54:01.339Z,56.29
2024-02-14T20:56:33.213Z,55.93
2024-02-14T20:59:11.070Z,56.00
2024-02-14T21:01:48.208Z,56.29
2024-02-14T21:04:20.176Z,56.41
2024-02-14T21:06:52.182Z,56.63
2024-02-14T21:09:24.097Z,56.66
2024-02-14T21:12:30.182Z,57.16
2024-02-14T21:15:02.520Z,56.89
2024-02-14T21:17:34.679Z,56.90
2024-02-14T21:20:08.123Z,56.70
2024-02-14T21:22:40.131Z,56.88
2024-02-14T21:25:13.734Z,57.12
2024-02-14T21:27:46.862Z,57.11
2024-02-14T21:30:19.315Z,57.25
2024-02-14T21:32:51.296Z,57.01
2024-02-14T21:35:23.764Z,57.17
2024-02-14T21:37:56.209Z,57.18
2024-02-14T21:40:28.138Z,57.25
2024-02-14T21:43:00.136Z,57.45
2024-02-14T21:45:32.054Z,57.34
2024-02-14T21:48:04.707Z,57.35
2024-02-14T21:50:37.099Z,57.51
2024-02-14T21:53:08.919Z,57.28
2024-02-14T21:56:00.876Z,57.85
2024-02-14T21:58:33.128Z,57.82
2024-02-14T22:01:05.252Z,57.75
2024-02-14T22:03:37.359Z,57.78
2024-02-14T22:06:09.704Z,57.92
2024-02-14T22:08:41.795Z,58.14
2024-02-14T22:11:14.825Z,57.86
2024-02-14T22:13:47.686Z,58.26
2024-02-14T22:16:21.193Z,58.22
2024-02-14T22:18:54.061Z,58.21
2024-02-14T22:21:26.493Z,58.46
2024-02-14T22:23:58.624Z,58.35
2024-02-14T22:26:30.844Z,58.91
2024-02-14T22:29:03.759Z,58.77
2024-02-14T22:31:37.167Z,58.84
2024-02-14T22:34:11.729Z,59.16
2024-02-14T22:36:43.870Z,59.23
2024-02-14T22:39:16.547Z,59.45
2024-02-14T22:41:50.380Z,59.36
2024-02-14T22:44:22.694Z,59.37
2024-02-14T22:46:54.667Z,59.79
2024-02-14T22:49:26.666Z,59.67
2024-02-14T22:51:59.403Z,59.60
2024-02-14T22:54:31.329Z,59.74
2024-02-14T22:57:04.564Z,59.72
2024-02-14T22:59:36.931Z,60.20
2024-02-14T23:02:09.864Z,60.07
2024-02-14T23:04:41.849Z,60.20
2024-02-14T23:07:13.818Z,59.99
2024-02-14T23:09:45.945Z,60.42
2024-02-14T23:12:18.825Z,60.47
2024-02-14T23:14:50.849Z,60.82
2024-02-14T23:17:22.844Z,61.02
2024-02-14T23:19:54.808Z,61.17
2024-02-14T23:22:26.825Z,61.13
2024-02-14T23:24:58.745Z,61.45
2024-02-14T23:27:30.706Z,61.52
2024-02-14T23:30:02.731Z,61.66
2024-02-14T23:32:34.831Z,61.97
2024-02-14T23:35:10.838Z,62.04
2024-02-14T23:37:44.872Z,61.97
2024-02-14T23:40:17.180Z,62.11
2024-02-14T23:42:49.141Z,62.20
2024-02-14T23:45:21.132Z,62.48
2024-02-14T23:47:54.488Z,62.55
2024-02-14T23:50:28.601Z,62.72
2024-02-14T23:53:00.920Z,62.66
2024-02-14T23:55:32.777Z,62.57
2024-02-14T23:58:05.177Z,62.84
